sensor_id;sensor_type;location;lat;lon;timestamp;P1;durP1;ratioP1;P2;durP2;ratioP2
6787;SDS011;3431;47.966;10.268;2024-02-26T00:00:16;1.00;;;1.00;;
6787;SDS011;3431;47.966;10.268;2024-02-26T00:00:38;0.95;;;0.95;;
6787;SDS011;3431;47.966;10.268;2024-02-26T00:01:00;1.02;;;1.02;;
6787;SDS011;3431;47.966;10.268;2024-02-26T00:01:22;1.17;;;1.08;;
6787;SDS011;3431;47.966;10.268;2024-02-26T00:01:44;1.05;;;1.00;;
6787;SDS011;3431;47.966;10.268;2024-02-26T00:02:05;1.10;;;1.10;;
6787;SDS011;3431;47.966;10.268;2024-02-26T00:02:28;1.10;;;1.10;;
6787;SDS011;3431;47.966;10.268;2024-02-26T00:02:50;1.10;;;1.10;;
6787;SDS011;3431;47.966;10.268;2024-02-26T00:03:11;0.98;;;0.98;;
6787;SDS011;3431;47.966;10.268;2024-02-26T00:03:33;1.35;;;1.25;;
6787;SDS011;3431;47.966;10.268;2024-02-26T00:03:56;1.30;;;1.20;;
6787;SDS011;3431;47.966;10.268;2024-02-26T00:04:20;0.93;;;0.93;;
6787;SDS011;3431;47.966;10.268;2024-02-26T00:04:42;1.00;;;1.00;;
6787;SDS011;3431;47.966;10.268;2024-02-26T00:05:04;1.30;;;1.20;;
6787;SDS011;3431;47.966;10.268;2024-02-26T00:05:27;1.08;;;1.05;;
6787;SDS011;3431;47.966;10.268;2024-02-26T00:05:49;1.00;;;1.00;;
6787;SDS011;3431;47.966;10.268;2024-02-26T00:06:11;1.00;;;1.00;;
6787;SDS011;3431;47.966;10.268;2024-02-26T00:06:33;1.02;;;1.02;;
6787;SDS011;3431;47.966;10.268;2024-02-26T00:06:55;0.98;;;0.98;;
6787;SDS011;3431;47.966;10.268;2024-02-26T00:07:16;1.00;;;1.00;;
6787;SDS011;3431;47.966;10.268;2024-02-26T00:07:38;1.00;;;1.00;;
6787;SDS011;3431;47.966;10.268;2024-02-26T00:08:00;1.00;;;1.00;;
6787;SDS011;3431;47.966;10.268;2024-02-26T00:08:22;0.90;;;0.90;;
6787;SDS011;3431;47.966;10.268;2024-02-26T00:08:44;1.10;;;1.10;;
6787;SDS011;3431;47.966;10.268;2024-02-26T00:09:05;0.90;;;0.90;;
6787;SDS011;3431;47.966;10.268;2024-02-26T00:09:27;0.95;;;0.95;;
6787;SDS011;3431;47.966;10.268;2024-02-26T00:09:49;1.00;;;1.00;;
6787;SDS011;3431;47.966;10.268;2024-02-26T00:10:11;0.88;;;0.88;;
6787;SDS011;3431;47.966;10.268;2024-02-26T00:10:33;1.00;;;1.00;;
6787;SDS011;3431;47.966;10.268;2024-02-26T00:10:55;0.90;;;0.90;;
6787;SDS011;3431;47.966;10.268;2024-02-26T00:11:17;0.98;;;0.98;;
6787;SDS011;3431;47.966;10.268;2024-02-26T00:11:38;1.10;;;1.10;;
6787;SDS011;3431;47.966;10.268;2024-02-26T00:12:01;1.10;;;1.05;;
6787;SDS011;3431;47.966;10.268;2024-02-26T00:12:22;1.15;;;1.13;;
6787;SDS011;3431;47.966;10.268;2024-02-26T00:12:44;1.10;;;1.10;;
6787;SDS011;3431;47.966;10.268;2024-02-26T00:13:05;1.10;;;1.10;;
6787;SDS011;3431;47.966;10.268;2024-02-26T00:13:27;0.93;;;0.93;;
6787;SDS011;3431;47.966;10.268;2024-02-26T00:13:49;1.10;;;1.10;;
6787;SDS011;3431;47.966;10.268;2024-02-26T00:14:11;1.00;;;1.00;;
6787;SDS011;3431;47.966;10.268;2024-02-26T00:14:33;1.17;;;1.17;;
6787;SDS011;3431;47.966;10.268;2024-02-26T00:14:54;1.07;;;1.07;;
6787;SDS011;3431;47.966;10.268;2024-02-26T00:15:18;1.08;;;1.08;;
6787;SDS011;3431;47.966;10.268;2024-02-26T00:15:40;1.00;;;1.00;;
6787;SDS011;3431;47.966;10.268;2024-02-26T00:16:03;1.00;;;1.00;;
6787;SDS011;3431;47.966;10.268;2024-02-26T00:16:25;1.25;;;1.15;;
6787;SDS011;3431;47.966;10.268;2024-02-26T00:16:46;1.30;;;1.30;;
6787;SDS011;3431;47.966;10.268;2024-02-26T00:17:08;1.15;;;1.15;;
6787;SDS011;3431;47.966;10.268;2024-02-26T00:17:29;1.00;;;1.00;;
6787;SDS011;3431;47.966;10.268;2024-02-26T00:17:52;1.00;;;1.00;;
6787;SDS011;3431;47.966;10.268;2024-02-26T00:18:13;0.80;;;0.80;;
6787;SDS011;3431;47.966;10.268;2024-02-26T00:18:35;1.20;;;1.10;;
6787;SDS011;3431;47.966;10.268;2024-02-26T00:18:56;1.10;;;1.10;;
6787;SDS011;3431;47.966;10.268;2024-02-26T00:19:18;1.00;;;1.00;;
6787;SDS011;3431;47.966;10.268;2024-02-26T00:19:39;1.05;;;1.05;;
6787;SDS011;3431;47.966;10.268;2024-02-26T00:20:02;1.02;;;1.02;;
6787;SDS011;3431;47.966;10.268;2024-02-26T00:20:25;1.00;;;1.00;;
6787;SDS011;3431;47.966;10.268;2024-02-26T00:20:46;0.90;;;0.90;;
6787;SDS011;3431;47.966;10.268;2024-02-26T00:21:09;0.80;;;0.80;;
6787;SDS011;3431;47.966;10.268;2024-02-26T00:21:31;1.00;;;1.00;;
6787;SDS011;3431;47.966;10.268;2024-02-26T00:21:53;1.08;;;1.08;;
6787;SDS011;3431;47.966;10.268;2024-02-26T00:22:16;1.00;;;1.00;;
6787;SDS011;3431;47.966;10.268;2024-02-26T00:22:38;1.00;;;1.00;;
6787;SDS011;3431;47.966;10.268;2024-02-26T00:22:59;1.00;;;1.00;;
6787;SDS011;3431;47.966;10.268;2024-02-26T00:23:21;1.00;;;1.00;;
6787;SDS011;3431;47.966;10.268;2024-02-26T00:23:43;1.08;;;1.08;;
6787;SDS011;3431;47.966;10.268;2024-02-26T00:24:05;1.00;;;1.00;;
6787;SDS011;3431;47.966;10.268;2024-02-26T00:24:28;0.90;;;0.90;;
6787;SDS011;3431;47.966;10.268;2024-02-26T00:24:49;1.00;;;1.00;;
6787;SDS011;3431;47.966;10.268;2024-02-26T00:25:11;1.10;;;1.10;;
6787;SDS011;3431;47.966;10.268;2024-02-26T00:25:33;1.10;;;1.10;;
6787;SDS011;3431;47.966;10.268;2024-02-26T00:25:54;0.90;;;0.90;;
6787;SDS011;3431;47.966;10.268;2024-02-26T00:26:17;0.98;;;0.98;;
6787;SDS011;3431;47.966;10.268;2024-02-26T00:26:38;1.00;;;1.00;;
6787;SDS011;3431;47.966;10.268;2024-02-26T00:27:00;0.95;;;0.95;;
6787;SDS011;3431;47.966;10.268;2024-02-26T00:27:21;1.10;;;1.10;;
6787;SDS011;3431;47.966;10.268;2024-02-26T00:27:43;0.90;;;0.90;;
6787;SDS011;3431;47.966;10.268;2024-02-26T00:28:05;0.95;;;0.95;;
6787;SDS011;3431;47.966;10.268;2024-02-26T00:28:27;0.95;;;0.95;;
6787;SDS011;3431;47.966;10.268;2024-02-26T00:28:50;1.13;;;1.10;;
6787;SDS011;3431;47.966;10.268;2024-02-26T00:29:11;1.10;;;1.00;;
6787;SDS011;3431;47.966;10.268;2024-02-26T00:29:33;0.93;;;0.93;;
6787;SDS011;3431;47.966;10.268;2024-02-26T00:29:54;0.98;;;0.98;;
6787;SDS011;3431;47.966;10.268;2024-02-26T00:30:16;1.00;;;1.00;;
6787;SDS011;3431;47.966;10.268;2024-02-26T00:30:38;0.90;;;0.90;;
6787;SDS011;3431;47.966;10.268;2024-02-26T00:31:00;1.00;;;1.00;;
6787;SDS011;3431;47.966;10.268;2024-02-26T00:31:21;1.00;;;1.00;;
6787;SDS011;3431;47.966;10.268;2024-02-26T00:31:43;1.00;;;1.00;;
6787;SDS011;3431;47.966;10.268;2024-02-26T00:32:04;0.90;;;0.90;;
6787;SDS011;3431;47.966;10.268;2024-02-26T00:32:27;1.00;;;1.00;;
6787;SDS011;3431;47.966;10.268;2024-02-26T00:32:49;1.30;;;1.30;;
6787;SDS011;3431;47.966;10.268;2024-02-26T00:33:11;1.10;;;1.10;;
6787;SDS011;3431;47.966;10.268;2024-02-26T00:33:32;1.00;;;1.00;;
6787;SDS011;3431;47.966;10.268;2024-02-26T00:33:54;0.95;;;0.95;;
6787;SDS011;3431;47.966;10.268;2024-02-26T00:34:15;1.00;;;1.00;;
6787;SDS011;3431;47.966;10.268;2024-02-26T00:34:38;1.00;;;1.00;;
6787;SDS011;3431;47.966;10.268;2024-02-26T00:34:59;1.10;;;1.10;;
6787;SDS011;3431;47.966;10.268;2024-02-26T00:35:21;1.20;;;1.20;;
6787;SDS011;3431;47.966;10.268;2024-02-26T00:35:42;1.02;;;1.02;;
6787;SDS011;3431;47.966;10.268;2024-02-26T00:36:04;0.90;;;0.90;;
6787;SDS011;3431;47.966;10.268;2024-02-26T00:36:28;0.80;;;0.80;;
6787;SDS011;3431;47.966;10.268;2024-02-26T00:36:50;0.82;;;0.82;;
6787;SDS011;3431;47.966;10.268;2024-02-26T00:37:11;1.00;;;1.00;;
6787;SDS011;3431;47.966;10.268;2024-02-26T00:37:33;0.90;;;0.90;;
6787;SDS011;3431;47.966;10.268;2024-02-26T00:37:54;1.00;;;1.00;;
6787;SDS011;3431;47.966;10.268;2024-02-26T00:38:16;1.10;;;1.10;;
6787;SDS011;3431;47.966;10.268;2024-02-26T00:38:38;1.00;;;1.00;;
6787;SDS011;3431;47.966;10.268;2024-02-26T00:39:01;0.90;;;0.90;;
6787;SDS011;3431;47.966;10.268;2024-02-26T00:39:24;0.95;;;0.95;;
6787;SDS011;3431;47.966;10.268;2024-02-26T00:39:46;1.13;;;1.02;;
6787;SDS011;3431;47.966;10.268;2024-02-26T00:40:08;1.00;;;1.00;;
6787;SDS011;3431;47.966;10.268;2024-02-26T00:40:31;1.20;;;1.20;;
6787;SDS011;3431;47.966;10.268;2024-02-26T00:40:52;1.17;;;1.17;;
6787;SDS011;3431;47.966;10.268;2024-02-26T00:41:14;1.10;;;1.10;;
6787;SDS011;3431;47.966;10.268;2024-02-26T00:41:37;0.70;;;0.70;;
6787;SDS011;3431;47.966;10.268;2024-02-26T00:42:00;1.20;;;1.10;;
6787;SDS011;3431;47.966;10.268;2024-02-26T00:42:21;1.20;;;1.20;;
6787;SDS011;3431;47.966;10.268;2024-02-26T00:42:44;1.00;;;1.00;;
6787;SDS011;3431;47.966;10.268;2024-02-26T00:43:06;0.90;;;0.90;;
6787;SDS011;3431;47.966;10.268;2024-02-26T00:43:28;1.05;;;1.05;;
6787;SDS011;3431;47.966;10.268;2024-02-26T00:43:49;1.00;;;1.00;;
6787;SDS011;3431;47.966;10.268;2024-02-26T00:44:11;1.00;;;1.00;;
6787;SDS011;3431;47.966;10.268;2024-02-26T00:44:34;0.98;;;0.98;;
6787;SDS011;3431;47.966;10.268;2024-02-26T00:44:56;1.00;;;1.00;;
6787;SDS011;3431;47.966;10.268;2024-02-26T00:45:17;1.20;;;1.00;;
6787;SDS011;3431;47.966;10.268;2024-02-26T00:45:39;1.20;;;1.10;;
6787;SDS011;3431;47.966;10.268;2024-02-26T00:46:00;0.90;;;0.90;;
6787;SDS011;3431;47.966;10.268;2024-02-26T00:46:23;1.05;;;1.05;;
6787;SDS011;3431;47.966;10.268;2024-02-26T00:46:45;1.20;;;1.20;;
6787;SDS011;3431;47.966;10.268;2024-02-26T00:47:07;1.13;;;1.13;;
6787;SDS011;3431;47.966;10.268;2024-02-26T00:47:28;1.10;;;1.10;;
6787;SDS011;3431;47.966;10.268;2024-02-26T00:47:50;1.25;;;1.23;;
6787;SDS011;3431;47.966;10.268;2024-02-26T00:48:11;1.30;;;1.20;;
6787;SDS011;3431;47.966;10.268;2024-02-26T00:48:35;1.20;;;1.10;;
6787;SDS011;3431;47.966;10.268;2024-02-26T00:48:58;1.42;;;1.30;;
6787;SDS011;3431;47.966;10.268;2024-02-26T00:49:19;1.23;;;1.13;;
6787;SDS011;3431;47.966;10.268;2024-02-26T00:49:41;1.05;;;1.05;;
6787;SDS011;3431;47.966;10.268;2024-02-26T00:50:02;1.10;;;1.10;;
6787;SDS011;3431;47.966;10.268;2024-02-26T00:50:24;1.00;;;1.00;;
6787;SDS011;3431;47.966;10.268;2024-02-26T00:50:47;0.95;;;0.95;;
6787;SDS011;3431;47.966;10.268;2024-02-26T00:51:08;1.00;;;1.00;;
6787;SDS011;3431;47.966;10.268;2024-02-26T00:51:31;1.17;;;1.10;;
6787;SDS011;3431;47.966;10.268;2024-02-26T00:51:56;1.10;;;1.10;;
6787;SDS011;3431;47.966;10.268;2024-02-26T00:52:18;1.30;;;1.25;;
6787;SDS011;3431;47.966;10.268;2024-02-26T00:52:39;1.42;;;1.20;;
6787;SDS011;3431;47.966;10.268;2024-02-26T00:53:02;1.60;;;1.27;;
6787;SDS011;3431;47.966;10.268;2024-02-26T00:53:24;1.10;;;1.10;;
6787;SDS011;3431;47.966;10.268;2024-02-26T00:53:46;1.02;;;1.02;;
6787;SDS011;3431;47.966;10.268;2024-02-26T00:54:07;1.08;;;1.08;;
6787;SDS011;3431;47.966;10.268;2024-02-26T00:54:29;1.25;;;1.17;;
6787;SDS011;3431;47.966;10.268;2024-02-26T00:54:51;1.58;;;1.30;;
6787;SDS011;3431;47.966;10.268;2024-02-26T00:55:13;1.00;;;1.00;;
6787;SDS011;3431;47.966;10.268;2024-02-26T00:55:35;1.00;;;1.00;;
6787;SDS011;3431;47.966;10.268;2024-02-26T00:55:56;1.15;;;1.15;;
6787;SDS011;3431;47.966;10.268;2024-02-26T00:56:19;1.08;;;1.08;;
6787;SDS011;3431;47.966;10.268;2024-02-26T00:56:41;1.00;;;1.00;;
6787;SDS011;3431;47.966;10.268;2024-02-26T00:57:02;1.20;;;1.00;;
6787;SDS011;3431;47.966;10.268;2024-02-26T00:57:25;1.00;;;1.00;;
6787;SDS011;3431;47.966;10.268;2024-02-26T00:57:46;1.13;;;1.13;;
6787;SDS011;3431;47.966;10.268;2024-02-26T00:58:08;1.13;;;1.13;;
6787;SDS011;3431;47.966;10.268;2024-02-26T00:58:30;1.85;;;1.10;;
6787;SDS011;3431;47.966;10.268;2024-02-26T00:58:52;1.15;;;1.05;;
6787;SDS011;3431;47.966;10.268;2024-02-26T00:59:14;1.13;;;1.13;;
6787;SDS011;3431;47.966;10.268;2024-02-26T00:59:36;1.13;;;1.13;;
6787;SDS011;3431;47.966;10.268;2024-02-26T00:59:57;1.00;;;1.00;;
6787;SDS011;3431;47.966;10.268;2024-02-26T01:00:20;1.00;;;1.00;;
6787;SDS011;3431;47.966;10.268;2024-02-26T01:00:41;1.07;;;1.07;;
6787;SDS011;3431;47.966;10.268;2024-02-26T01:01:03;1.20;;;1.17;;
6787;SDS011;3431;47.966;10.268;2024-02-26T01:01:25;1.30;;;1.20;;
6787;SDS011;3431;47.966;10.268;2024-02-26T01:01:47;1.23;;;1.20;;
6787;SDS011;3431;47.966;10.268;2024-02-26T01:02:09;1.27;;;1.25;;
6787;SDS011;3431;47.966;10.268;2024-02-26T01:02:30;1.17;;;1.17;;
6787;SDS011;3431;47.966;10.268;2024-02-26T01:02:52;1.13;;;1.10;;
6787;SDS011;3431;47.966;10.268;2024-02-26T01:03:13;1.30;;;1.20;;
6787;SDS011;3431;47.966;10.268;2024-02-26T01:03:36;1.00;;;1.00;;
6787;SDS011;3431;47.966;10.268;2024-02-26T01:03:58;1.13;;;1.13;;
6787;SDS011;3431;47.966;10.268;2024-02-26T01:04:19;1.42;;;1.20;;
6787;SDS011;3431;47.966;10.268;2024-02-26T01:04:41;1.10;;;1.10;;
6787;SDS011;3431;47.966;10.268;2024-02-26T01:05:04;1.10;;;1.10;;
6787;SDS011;3431;47.966;10.268;2024-02-26T01:05:27;1.20;;;1.20;;
6787;SDS011;3431;47.966;10.268;2024-02-26T01:05:49;1.20;;;1.20;;
6787;SDS011;3431;47.966;10.268;2024-02-26T01:06:11;1.15;;;1.15;;
6787;SDS011;3431;47.966;10.268;2024-02-26T01:06:33;1.35;;;1.10;;
6787;SDS011;3431;47.966;10.268;2024-02-26T01:06:55;1.50;;;1.13;;
6787;SDS011;3431;47.966;10.268;2024-02-26T01:07:18;1.10;;;1.10;;
6787;SDS011;3431;47.966;10.268;2024-02-26T01:07:40;1.10;;;1.10;;
6787;SDS011;3431;47.966;10.268;2024-02-26T01:08:01;1.27;;;1.20;;
6787;SDS011;3431;47.966;10.268;2024-02-26T01:08:23;1.10;;;1.08;;
6787;SDS011;3431;47.966;10.268;2024-02-26T01:08:44;1.02;;;1.02;;
6787;SDS011;3431;47.966;10.268;2024-02-26T01:09:06;1.40;;;1.30;;
6787;SDS011;3431;47.966;10.268;2024-02-26T01:09:30;1.02;;;1.02;;
6787;SDS011;3431;47.966;10.268;2024-02-26T01:09:51;0.90;;;0.90;;
6787;SDS011;3431;47.966;10.268;2024-02-26T01:10:13;1.05;;;1.05;;
6787;SDS011;3431;47.966;10.268;2024-02-26T01:10:34;0.98;;;0.98;;
6787;SDS011;3431;47.966;10.268;2024-02-26T01:10:56;1.10;;;1.10;;
6787;SDS011;3431;47.966;10.268;2024-02-26T01:11:18;1.08;;;1.08;;
6787;SDS011;3431;47.966;10.268;2024-02-26T01:11:40;1.00;;;1.00;;
6787;SDS011;3431;47.966;10.268;2024-02-26T01:12:01;1.00;;;1.00;;
6787;SDS011;3431;47.966;10.268;2024-02-26T01:12:23;1.00;;;1.00;;
6787;SDS011;3431;47.966;10.268;2024-02-26T01:12:45;1.02;;;1.02;;
6787;SDS011;3431;47.966;10.268;2024-02-26T01:13:08;1.13;;;1.13;;
6787;SDS011;3431;47.966;10.268;2024-02-26T01:13:30;1.10;;;1.10;;
6787;SDS011;3431;47.966;10.268;2024-02-26T01:13:51;1.30;;;1.30;;
6787;SDS011;3431;47.966;10.268;2024-02-26T01:14:17;1.10;;;1.10;;
6787;SDS011;3431;47.966;10.268;2024-02-26T01:14:38;1.10;;;1.10;;
6787;SDS011;3431;47.966;10.268;2024-02-26T01:15:01;1.20;;;1.20;;
6787;SDS011;3431;47.966;10.268;2024-02-26T01:15:23;1.20;;;1.20;;
6787;SDS011;3431;47.966;10.268;2024-02-26T01:15:45;1.20;;;1.20;;
6787;SDS011;3431;47.966;10.268;2024-02-26T01:16:06;1.10;;;1.10;;
6787;SDS011;3431;47.966;10.268;2024-02-26T01:16:28;1.00;;;1.00;;
6787;SDS011;3431;47.966;10.268;2024-02-26T01:16:50;1.10;;;1.10;;
6787;SDS011;3431;47.966;10.268;2024-02-26T01:17:12;1.10;;;1.10;;
6787;SDS011;3431;47.966;10.268;2024-02-26T01:17:34;1.10;;;1.10;;
6787;SDS011;3431;47.966;10.268;2024-02-26T01:17:55;1.15;;;1.15;;
6787;SDS011;3431;47.966;10.268;2024-02-26T01:18:17;1.40;;;1.30;;
6787;SDS011;3431;47.966;10.268;2024-02-26T01:18:39;1.10;;;1.10;;
6787;SDS011;3431;47.966;10.268;2024-02-26T01:19:01;1.20;;;1.10;;
6787;SDS011;3431;47.966;10.268;2024-02-26T01:19:23;1.20;;;1.10;;
6787;SDS011;3431;47.966;10.268;2024-02-26T01:19:45;1.25;;;1.25;;
6787;SDS011;3431;47.966;10.268;2024-02-26T01:20:07;1.10;;;1.10;;
6787;SDS011;3431;47.966;10.268;2024-02-26T01:20:29;1.00;;;1.00;;
6787;SDS011;3431;47.966;10.268;2024-02-26T01:20:51;1.00;;;1.00;;
6787;SDS011;3431;47.966;10.268;2024-02-26T01:21:15;1.10;;;1.10;;
6787;SDS011;3431;47.966;10.268;2024-02-26T01:21:39;1.10;;;1.10;;
6787;SDS011;3431;47.966;10.268;2024-02-26T01:22:00;1.10;;;1.00;;
6787;SDS011;3431;47.966;10.268;2024-02-26T01:22:22;1.20;;;1.20;;
6787;SDS011;3431;47.966;10.268;2024-02-26T01:22:43;1.33;;;1.23;;
6787;SDS011;3431;47.966;10.268;2024-02-26T01:23:05;1.20;;;1.20;;
6787;SDS011;3431;47.966;10.268;2024-02-26T01:23:28;1.00;;;1.00;;
6787;SDS011;3431;47.966;10.268;2024-02-26T01:23:49;1.08;;;1.08;;
6787;SDS011;3431;47.966;10.268;2024-02-26T01:24:11;1.20;;;1.20;;
6787;SDS011;3431;47.966;10.268;2024-02-26T01:24:32;1.25;;;1.15;;
6787;SDS011;3431;47.966;10.268;2024-02-26T01:24:54;1.20;;;1.10;;
6787;SDS011;3431;47.966;10.268;2024-02-26T01:25:17;1.10;;;1.08;;
6787;SDS011;3431;47.966;10.268;2024-02-26T01:25:39;0.93;;;0.93;;
6787;SDS011;3431;47.966;10.268;2024-02-26T01:26:00;1.20;;;1.10;;
6787;SDS011;3431;47.966;10.268;2024-02-26T01:26:23;1.08;;;1.00;;
6787;SDS011;3431;47.966;10.268;2024-02-26T01:26:45;1.15;;;1.15;;
6787;SDS011;3431;47.966;10.268;2024-02-26T01:27:07;1.35;;;1.25;;
6787;SDS011;3431;47.966;10.268;2024-02-26T01:27:30;1.23;;;1.20;;
6787;SDS011;3431;47.966;10.268;2024-02-26T01:27:51;1.10;;;1.10;;
6787;SDS011;3431;47.966;10.268;2024-02-26T01:28:13;1.00;;;1.00;;
6787;SDS011;3431;47.966;10.268;2024-02-26T01:28:35;1.00;;;1.00;;
6787;SDS011;3431;47.966;10.268;2024-02-26T01:28:56;0.90;;;0.90;;
6787;SDS011;3431;47.966;10.268;2024-02-26T01:29:19;0.90;;;0.90;;
6787;SDS011;3431;47.966;10.268;2024-02-26T01:29:40;1.10;;;1.10;;
6787;SDS011;3431;47.966;10.268;2024-02-26T01:30:02;1.20;;;1.20;;
6787;SDS011;3431;47.966;10.268;2024-02-26T01:30:24;1.30;;;1.20;;
6787;SDS011;3431;47.966;10.268;2024-02-26T01:30:46;1.30;;;1.20;;
6787;SDS011;3431;47.966;10.268;2024-02-26T01:31:09;1.08;;;1.00;;
6787;SDS011;3431;47.966;10.268;2024-02-26T01:31:30;1.27;;;1.20;;
6787;SDS011;3431;47.966;10.268;2024-02-26T01:31:52;1.10;;;1.10;;
6787;SDS011;3431;47.966;10.268;2024-02-26T01:32:13;1.10;;;1.10;;
6787;SDS011;3431;47.966;10.268;2024-02-26T01:32:35;1.10;;;1.10;;
6787;SDS011;3431;47.966;10.268;2024-02-26T01:32:57;1.02;;;1.02;;
6787;SDS011;3431;47.966;10.268;2024-02-26T01:33:19;0.98;;;0.98;;
6787;SDS011;3431;47.966;10.268;2024-02-26T01:33:40;1.08;;;1.08;;
6787;SDS011;3431;47.966;10.268;2024-02-26T01:34:02;0.93;;;0.93;;
6787;SDS011;3431;47.966;10.268;2024-02-26T01:34:23;1.10;;;1.10;;
6787;SDS011;3431;47.966;10.268;2024-02-26T01:34:45;1.17;;;1.17;;
6787;SDS011;3431;47.966;10.268;2024-02-26T01:35:08;1.20;;;1.10;;
6787;SDS011;3431;47.966;10.268;2024-02-26T01:35:31;1.33;;;1.23;;
6787;SDS011;3431;47.966;10.268;2024-02-26T01:35:53;1.38;;;1.30;;
6787;SDS011;3431;47.966;10.268;2024-02-26T01:36:14;1.20;;;1.20;;
6787;SDS011;3431;47.966;10.268;2024-02-26T01:36:36;1.02;;;1.02;;
6787;SDS011;3431;47.966;10.268;2024-02-26T01:37:00;1.10;;;1.10;;
6787;SDS011;3431;47.966;10.268;2024-02-26T01:37:21;1.20;;;1.10;;
6787;SDS011;3431;47.966;10.268;2024-02-26T01:37:43;1.10;;;1.10;;
6787;SDS011;3431;47.966;10.268;2024-02-26T01:38:04;1.10;;;1.10;;
6787;SDS011;3431;47.966;10.268;2024-02-26T01:38:26;1.17;;;1.15;;
6787;SDS011;3431;47.966;10.268;2024-02-26T01:38:49;1.20;;;1.17;;
6787;SDS011;3431;47.966;10.268;2024-02-26T01:39:10;1.05;;;1.05;;
6787;SDS011;3431;47.966;10.268;2024-02-26T01:39:33;1.10;;;1.10;;
6787;SDS011;3431;47.966;10.268;2024-02-26T01:39:54;1.10;;;1.10;;
6787;SDS011;3431;47.966;10.268;2024-02-26T01:40:16;1.08;;;1.08;;
6787;SDS011;3431;47.966;10.268;2024-02-26T01:40:40;2.17;;;1.10;;
6787;SDS011;3431;47.966;10.268;2024-02-26T01:41:04;1.30;;;1.20;;
6787;SDS011;3431;47.966;10.268;2024-02-26T01:41:25;1.00;;;1.00;;
6787;SDS011;3431;47.966;10.268;2024-02-26T01:41:47;1.10;;;1.10;;
6787;SDS011;3431;47.966;10.268;2024-02-26T01:42:08;1.05;;;1.05;;
6787;SDS011;3431;47.966;10.268;2024-02-26T01:42:30;1.20;;;1.20;;
6787;SDS011;3431;47.966;10.268;2024-02-26T01:42:52;1.13;;;1.13;;
6787;SDS011;3431;47.966;10.268;2024-02-26T01:43:14;1.10;;;1.10;;
6787;SDS011;3431;47.966;10.268;2024-02-26T01:43:36;1.20;;;1.20;;
6787;SDS011;3431;47.966;10.268;2024-02-26T01:43:57;1.00;;;1.00;;
6787;SDS011;3431;47.966;10.268;2024-02-26T01:44:19;1.38;;;1.27;;
6787;SDS011;3431;47.966;10.268;2024-02-26T01:44:40;1.40;;;1.30;;
6787;SDS011;3431;47.966;10.268;2024-02-26T01:45:05;1.15;;;1.08;;
6787;SDS011;3431;47.966;10.268;2024-02-26T01:45:28;1.02;;;1.02;;
6787;SDS011;3431;47.966;10.268;2024-02-26T01:45:50;1.00;;;1.00;;
6787;SDS011;3431;47.966;10.268;2024-02-26T01:46:12;1.13;;;1.13;;
6787;SDS011;3431;47.966;10.268;2024-02-26T01:46:35;1.33;;;1.33;;
6787;SDS011;3431;47.966;10.268;2024-02-26T01:46:57;1.27;;;1.27;;
6787;SDS011;3431;47.966;10.268;2024-02-26T01:47:19;1.45;;;1.40;;
6787;SDS011;3431;47.966;10.268;2024-02-26T01:47:41;1.33;;;1.23;;
6787;SDS011;3431;47.966;10.268;2024-02-26T01:48:03;1.33;;;1.30;;
6787;SDS011;3431;47.966;10.268;2024-02-26T01:48:25;1.35;;;1.25;;
6787;SDS011;3431;47.966;10.268;2024-02-26T01:48:47;1.40;;;1.25;;
6787;SDS011;3431;47.966;10.268;2024-02-26T01:49:11;1.10;;;1.10;;
6787;SDS011;3431;47.966;10.268;2024-02-26T01:49:34;1.35;;;1.27;;
6787;SDS011;3431;47.966;10.268;2024-02-26T01:49:56;1.17;;;1.17;;
6787;SDS011;3431;47.966;10.268;2024-02-26T01:50:18;1.15;;;1.13;;
6787;SDS011;3431;47.966;10.268;2024-02-26T01:50:40;1.38;;;1.27;;
6787;SDS011;3431;47.966;10.268;2024-02-26T01:51:03;1.42;;;1.33;;
6787;SDS011;3431;47.966;10.268;2024-02-26T01:51:24;1.38;;;1.33;;
6787;SDS011;3431;47.966;10.268;2024-02-26T01:51:46;1.50;;;1.40;;
6787;SDS011;3431;47.966;10.268;2024-02-26T01:52:09;1.50;;;1.40;;
6787;SDS011;3431;47.966;10.268;2024-02-26T01:52:31;1.50;;;1.40;;
6787;SDS011;3431;47.966;10.268;2024-02-26T01:52:54;1.50;;;1.40;;
6787;SDS011;3431;47.966;10.268;2024-02-26T01:53:18;1.38;;;1.30;;
6787;SDS011;3431;47.966;10.268;2024-02-26T01:53:40;1.55;;;1.45;;
6787;SDS011;3431;47.966;10.268;2024-02-26T01:54:02;1.67;;;1.30;;
6787;SDS011;3431;47.966;10.268;2024-02-26T01:54:25;1.20;;;1.10;;
6787;SDS011;3431;47.966;10.268;2024-02-26T01:54:47;1.23;;;1.20;;
6787;SDS011;3431;47.966;10.268;2024-02-26T01:55:09;1.50;;;1.40;;
6787;SDS011;3431;47.966;10.268;2024-02-26T01:55:30;1.20;;;1.20;;
6787;SDS011;3431;47.966;10.268;2024-02-26T01:55:52;1.17;;;1.17;;
6787;SDS011;3431;47.966;10.268;2024-02-26T01:56:15;1.27;;;1.27;;
6787;SDS011;3431;47.966;10.268;2024-02-26T01:56:38;1.15;;;1.15;;
6787;SDS011;3431;47.966;10.268;2024-02-26T01:57:02;1.10;;;1.10;;
6787;SDS011;3431;47.966;10.268;2024-02-26T01:57:24;1.50;;;1.40;;
6787;SDS011;3431;47.966;10.268;2024-02-26T01:57:47;1.40;;;1.30;;
6787;SDS011;3431;47.966;10.268;2024-02-26T01:58:12;1.23;;;1.23;;
6787;SDS011;3431;47.966;10.268;2024-02-26T01:58:34;1.48;;;1.38;;
6787;SDS011;3431;47.966;10.268;2024-02-26T01:58:57;1.35;;;1.25;;
6787;SDS011;3431;47.966;10.268;2024-02-26T01:59:20;1.13;;;1.13;;
6787;SDS011;3431;47.966;10.268;2024-02-26T01:59:41;1.17;;;1.17;;
6787;SDS011;3431;47.966;10.268;2024-02-26T02:00:05;1.20;;;1.20;;
6787;SDS011;3431;47.966;10.268;2024-02-26T02:00:29;1.40;;;1.30;;
6787;SDS011;3431;47.966;10.268;2024-02-26T02:00:52;1.30;;;1.20;;
6787;SDS011;3431;47.966;10.268;2024-02-26T02:01:14;1.50;;;1.40;;
6787;SDS011;3431;47.966;10.268;2024-02-26T02:01:39;1.30;;;1.20;;
6787;SDS011;3431;47.966;10.268;2024-02-26T02:02:07;1.20;;;1.20;;
6787;SDS011;3431;47.966;10.268;2024-02-26T02:02:31;1.42;;;1.42;;
6787;SDS011;3431;47.966;10.268;2024-02-26T02:02:52;1.50;;;1.40;;
6787;SDS011;3431;47.966;10.268;2024-02-26T02:03:15;1.33;;;1.30;;
6787;SDS011;3431;47.966;10.268;2024-02-26T02:03:38;1.30;;;1.30;;
6787;SDS011;3431;47.966;10.268;2024-02-26T02:04:02;1.40;;;1.30;;
6787;SDS011;3431;47.966;10.268;2024-02-26T02:04:24;1.42;;;1.33;;
6787;SDS011;3431;47.966;10.268;2024-02-26T02:04:46;1.67;;;1.58;;
6787;SDS011;3431;47.966;10.268;2024-02-26T02:05:08;1.90;;;1.40;;
6787;SDS011;3431;47.966;10.268;2024-02-26T02:05:31;1.40;;;1.30;;
6787;SDS011;3431;47.966;10.268;2024-02-26T02:05:54;1.42;;;1.40;;
6787;SDS011;3431;47.966;10.268;2024-02-26T02:06:16;1.35;;;1.35;;
6787;SDS011;3431;47.966;10.268;2024-02-26T02:06:38;1.35;;;1.30;;
6787;SDS011;3431;47.966;10.268;2024-02-26T02:07:02;1.40;;;1.30;;
6787;SDS011;3431;47.966;10.268;2024-02-26T02:07:25;1.70;;;1.60;;
6787;SDS011;3431;47.966;10.268;2024-02-26T02:07:47;1.65;;;1.55;;
6787;SDS011;3431;47.966;10.268;2024-02-26T02:08:10;1.48;;;1.40;;
6787;SDS011;3431;47.966;10.268;2024-02-26T02:08:32;1.13;;;1.13;;
6787;SDS011;3431;47.966;10.268;2024-02-26T02:08:56;1.25;;;1.20;;
6787;SDS011;3431;47.966;10.268;2024-02-26T02:09:17;1.50;;;1.40;;
6787;SDS011;3431;47.966;10.268;2024-02-26T02:09:39;1.50;;;1.40;;
6787;SDS011;3431;47.966;10.268;2024-02-26T02:10:02;1.55;;;1.45;;
6787;SDS011;3431;47.966;10.268;2024-02-26T02:10:26;1.60;;;1.50;;
6787;SDS011;3431;47.966;10.268;2024-02-26T02:10:49;1.20;;;1.20;;
6787;SDS011;3431;47.966;10.268;2024-02-26T02:11:11;1.42;;;1.40;;
6787;SDS011;3431;47.966;10.268;2024-02-26T02:11:33;1.50;;;1.40;;
6787;SDS011;3431;47.966;10.268;2024-02-26T02:11:54;1.40;;;1.30;;
6787;SDS011;3431;47.966;10.268;2024-02-26T02:12:17;1.35;;;1.25;;
6787;SDS011;3431;47.966;10.268;2024-02-26T02:12:40;1.20;;;1.20;;
6787;SDS011;3431;47.966;10.268;2024-02-26T02:13:02;1.38;;;1.27;;
6787;SDS011;3431;47.966;10.268;2024-02-26T02:13:23;1.40;;;1.17;;
6787;SDS011;3431;47.966;10.268;2024-02-26T02:13:45;1.90;;;1.30;;
6787;SDS011;3431;47.966;10.268;2024-02-26T02:14:07;1.17;;;1.13;;
6787;SDS011;3431;47.966;10.268;2024-02-26T02:14:28;1.30;;;1.20;;
6787;SDS011;3431;47.966;10.268;2024-02-26T02:14:51;1.20;;;1.20;;
6787;SDS011;3431;47.966;10.268;2024-02-26T02:15:12;1.42;;;1.35;;